Terminal Aerodrome Forecast
Issued by NWS

Home | Current Version | Previous Version | Text Only | Print | Product List | Glossary On
Versions: 1 2 3 4 5 6 7 8 9 10 11 12 13 14 15 16 17 18 19 20 21 22 23 24 25 26
000
FTUS46 KSEW 261100
TAFSEA
TAF
KSEA 261135Z 2612/2718 19012G18KT P6SM VCSH SCT010 BKN023 OVC045
      TEMPO 2612/2616 BKN010 OVC023
     FM262000 19008KT P6SM BKN035 OVC150
     FM270300 18014G24KT P6SM -RA OVC025
      TEMPO 2708/2712 4SM -RA BR OVC015=

USA.gov is the U.S. government's official web portal to all federal, state and local government web resources and services.